International TAF

Brunei, China, Hong Kong, Malaysia, Philippines, Taiwan

The availability of aerodrome forecasts from overseas locations is dependent on the regular international exchange of data. Some locations may at times be absent. If this problem persists, please advise webav@bom.gov.au

 back to top

ZSPD 26/09/2022 UTC

TAF ZSPD 262105Z 2700/2724 05004MPS 6000 BKN020 TX25/2706Z
TN20/2720Z

WIDD 26/09/2022 UTC

TAF WIDD 262300Z 2700/2724 20008KT 8000 SCT014
PROB30 TEMPO 2700/2703 -RA

WAMM 26/09/2022 UTC

TAF WAMM 262300Z 2700/2806 16009KT 9999 SCT021
BECMG 2711/2712 VRB03KT

WBSB 26/09/2022 UTC

TAF WBSB 262250Z 2700/2806 24004KT 9999 FEW003 FEW015CB
BECMG 2705/2707 29008KT FEW015 FEW016CB

WBKK 26/09/2022 UTC

TAF WBKK 262300Z 2700/2800 28005KT 9999 FEW015
TEMPO 2700/2705 22005G20KT 3000 +TSRA FEW014 FEW016CB SCT030
BECMG 2709/2711 11005KT

WBGG 26/09/2022 UTC

TAF WBGG 262300Z 2700/2800 32005KT 9999 SCT020
TEMPO 2707/2711 4000 TSRA FEW015CB

VHHH 26/09/2022 UTC

TAF VHHH 262300Z 2700/2806 08015KT 9999 FEW020 SCT035 TX32/2706Z
TX32/2806Z TN28/2722Z TEMPO 2702/2708 08015G25KT 4000 SHRA TEMPO
2712/2718 08015G25KT 4000 SHRA TEMPO 2800/2806 08020G30KT 4000
SHRA

VMMC 26/09/2022 UTC

TAF VMMC 262300Z 2700/2806 07015KT 9999 FEW022 SCT035
TEMPO 2708/2714 09018G28KT

ZGSZ 26/09/2022 UTC

TAF ZGSZ 262115Z 2700/2724 09005G11MPS 8000 SCT030 TX33/2706Z
TN27/2722Z

RCTP 26/09/2022 UTC

TAF RCTP 262300Z 2700/2806 05018KT 9999 FEW020
TEMPO 2700/2706 FEW010 BKN017
TEMPO 2703/2709 04023KT
BECMG 2710/2712 09013KT
BECMG 2800/2802 04015KT

RCKH 26/09/2022 UTC

TAF RCKH 262300Z 2700/2806 27005KT 9999 FEW015
TEMPO 2703/2709 27010KT FEW012 FEW015TCU BKN032
BECMG 2712/2714 06005KT
TEMPO 2717/2723 5000 BR FEW012 BKN020
BECMG 2801/2803 28007KT

ZGGG 26/09/2022 UTC

TAF ZGGG 262101Z 2700/2724 08004MPS 8000 SCT040 TX35/2707Z
TN27/2722Z

ZBAA 26/09/2022 UTC

TAF ZBAA 262109Z 2700/2724 18004MPS 6000 NSC TX29/2707Z TN15/2721Z

ZSSS 26/09/2022 UTC

TAF ZSSS 262103Z 2700/2724 06004MPS 6000 BKN020 TX26/2706Z
TN21/2720Z

ZBTJ 26/09/2022 UTC

TAF ZBTJ 262120Z 2700/2724 19003MPS 5000 HZ NSC TX30/2707Z
TN18/2721Z

ZBYN 26/09/2022 UTC

TAF ZBYN 262101Z 2700/2724 21003MPS 5000 HZ NSC TX25/2707Z
TN10/2721Z

ZSHC 26/09/2022 UTC

TAF ZSHC 262116Z 2700/2724 07003MPS 3000 BR SCT026 TX28/2706Z
TN21/2721Z

ZSOF 27/09/2022 UTC

TAF ZSOF 262101Z 2700/2724 08003MPS 6000 NSC TX28/2707Z TN18/2721Z

ZWWW 26/09/2022 UTC

TAF ZWWW 262104Z 2700/2724 17004MPS CAVOK TX31/2706Z TN15/2723Z
BECMG 2703/2704 34003MPS BECMG 2707/2708 34008G15MPS TEMPO 2707/2710
1500 SA BKN040 BECMG 2710/2711 20004MPS

ZYTL 26/09/2022 UTC

TAF ZYTL 262103Z 2700/2724 18004MPS 5000 BR FEW033 TX23/2706Z
TN12/2721Z TEMPO 2700/2702 2000

RPLL 26/09/2022 UTC

TAF RPLL 262300Z 2700/2806 11006KT 9999 SCT023 BKN100 TX30/2705Z TN25/2720Z
TEMPO 2700/2704 -SHRA
BECMG 2704/2706 26007KT
TEMPO 2706/2712 VRB07KT 5000 TSRA SCT022CB SCT023 OVC090

RPVM 26/09/2022 UTC

TAF RPVM 262300Z 2700/2806 22007KT 9999 FEW020 BKN100
TEMPO 2700/2706 21012KT FEW020 BKN250
TEMPO 2706/2712 24008KT -SHRA FEW018CB BKN100

RPMZ 26/09/2022 UTC

TAF RPMZ 262300Z 2700/2724 27007KT 9999 FEW017 SCT090 BKN300
TEMPO 2700/2706 28013KT 6000 -SHRA FEW016CB SCT017 BKN090

Australian International

The availability of aerodrome forecasts from overseas locations is dependent on the regular international exchange of data. Some locations may at times be absent. If this problem persists, please advise webav@bom.gov.au

 back to top

YMML 26/09/2022 UTC

TAF YMML 262330Z 2700/2806
19012KT 9999 -SHRA FEW010 BKN030
FM270900 17010KT 9999 -SHRA BKN008
FM271500 18008KT 8000 -DZ BKN006
BECMG 2722/2723 18014KT 9999 -DZ BKN012
FM280100 19016KT 9999 -SHRA SCT015 BKN020
INTER 2702/2707 3000 SHRA BKN015 FEW030TCU
TEMPO 2712/2715 3000 DZ BKN006
TEMPO 2715/2800 2000 DZ BKN004
INTER 2800/2802 4000 DZ BKN010
RMK
T 13 15 14 12 Q 1013 1011 1011 1013
TAF3

YSSY 26/09/2022 UTC

TAF AMD YSSY 262307Z 2700/2806
29006KT 9999 -RA SCT015
FM270100 14010KT 9999 -RA SCT020
FM270400 05014KT 9999 -SHRA SCT040
FM271100 29006KT 9999 -SHRA BKN020
FM272000 23010KT 9999 -SHRA BKN025
FM280300 12010KT 9999 -SHRA BKN025
INTER 2718/2802 4000 SHRA BKN015
PROB30 TEMPO 2706/2806 VRB20G40KT 2000 TSRA BKN010 SCT050CB
RMK
T 17 20 20 18 Q 1014 1011 1010 1011
TAF3

YBBN 27/09/2022 UTC

TAF AMD YBBN 270039Z 2700/2806
01012KT 9999 BKN040
FM270200 01017KT 9999 SCT030
FM270800 36010KT 9000 -RA SCT020 BKN040
FM271200 34008KT 9999 NSW FEW010 SCT050
FM272100 34008KT 9999 -SHRA SCT020 BKN040
PROB40 TEMPO 2702/2712 VRB20G40KT 1000 TSRA BKN010 SCT030CB
PROB40 TEMPO 2802/2806 VRB20G40KT 1000 TSRA BKN010 SCT030CB
RMK
T 22 24 22 20 Q 1015 1012 1012 1014
TAF3

YSCB 27/09/2022 UTC

TAF AMD YSCB 270107Z 2701/2800
36007KT 9999 -RA BKN010
FM270200 36007KT 9999 -RA BKN025
FM270900 06007KT 9999 -SHRA SCT015 BKN040
TEMPO 2701/2704 4000 RA SCT005 BKN010
TEMPO 2712/2718 4000 SHRA BKN015
TEMPO 2718/2800 9999 -SHRA BKN010
PROB30 TEMPO 2704/2714 VRB25G35KT 2000 TSRA SCT030 FEW035CB
RMK
T 13 17 15 11 Q 1013 1011 1011 1012
TAF3

YBCS 26/09/2022 UTC

TAF YBCS 262327Z 2700/2800
07011KT 9999 FEW035
FM270900 16006KT 9999 SCT025
RMK
T 29 30 29 25 Q 1013 1011 1010 1011
TAF3

YBAS 26/09/2022 UTC

TAF AMD YBAS 262311Z 2623/2800
12014KT 9999 -RA SCT030
FM270900 10008KT 9999 -RA FEW050
FM271400 VRB03KT CAVOK
FM272300 11012KT CAVOK
PROB30 TEMPO 2623/2710 VRB25G40KT 3000 TSRA SCT010 SCT100CB
RMK
T 15 16 16 16 Q 1021 1022 1018 1018

YBMA 26/09/2022 UTC

TAF AMD YBMA 262326Z 2623/2712
11014KT CAVOK
FM270800 16017KT CAVOK
RMK
T 28 33 34 32 Q 1015 1013 1010 1011

YPAD 26/09/2022 UTC

TAF AMD YPAD 262313Z 2700/2806
21018G28KT 9999 -SHRA BKN035
FM270900 20012KT 9999 -SHRA SCT015 BKN025
FM271200 19010KT 9999 -SHRA SCT010 BKN020
FM280300 20012KT 9999 -SHRA SCT020 BKN035
INTER 2700/2712 5000 SHRA SCT015 BKN020
RMK
T 14 14 14 13 Q 1019 1018 1018 1020
TAF3

YPDN 26/09/2022 UTC

TAF YPDN 262310Z 2700/2806
34006KT 9999 SCT020
FM270200 32012KT 9999 SCT035
FM271000 30006KT 9999 FEW025
FM271600 02005KT 9999 -SHRA SCT018
FM272200 09005KT 9999 -SHRA SCT020
FM280300 35010KT 9999 -SHRA SCT025
INTER 2803/2806 3000 SHRA BKN015
RMK
T 31 31 32 30 Q 1011 1009 1007 1007
TAF3

YPTN 26/09/2022 UTC

TAF YPTN 262313Z 2700/2800
30007KT CAVOK
FM271500 01006KT 9999 SCT050
FM272100 30005KT 9999 FEW020
PROB30 TEMPO 2706/2711 VRB20G35KT 3000 TSRA SCT030 SCT080CB
PROB30 TEMPO 2715/2719 VRB20G35KT 2000 TSRA SCT015 SCT050CB
RMK
T 31 36 38 36 Q 1011 1008 1005 1006

YPPH 26/09/2022 UTC

TAF YPPH 262307Z 2700/2806
10007KT CAVOK
FM270200 32007KT CAVOK
FM270400 24012KT CAVOK
FM271000 19007KT CAVOK
FM280500 24012KT CAVOK
RMK
T 15 21 24 21 Q 1023 1022 1020 1019
TAF3

YPLM 26/09/2022 UTC

TAF YPLM 262322Z 2700/2800
10014KT CAVOK
FM270400 06010KT CAVOK
FM270900 22010KT CAVOK
RMK FM270000 MOD TURB BLW 5000FT TL270300
T 22 28 31 29 Q 1015 1014 1012 1011

YCAR 26/09/2022 UTC

TAF YCAR 262032Z 2622/2711
11014KT CAVOK
FM270400 17014KT CAVOK
FM270600 20018KT CAVOK
RMK
T 14 23 27 28 Q 1016 1018 1016 1013

YPCC 26/09/2022 UTC

TAF YPCC 262322Z 2700/2800
12014KT 9999 BKN018
INTER 2700/2703 11015G25KT 4000 SHRA BKN015
RMK
T 25 27 27 27 Q 1013 1013 1012 1010

YPPD 26/09/2022 UTC

TAF YPPD 262323Z 2700/2800
13018G28KT CAVOK
FM270600 10014KT CAVOK
FM270900 29010KT CAVOK
FM271400 19005KT CAVOK
RMK FM270000 MOD TURB BLW 5000FT TL270300
T 25 32 33 31 Q 1014 1012 1009 1008

YBTL 27/09/2022 UTC

TAF YBTL 270108Z 2702/2800
05014KT 9999 FEW035
FM270900 07008KT 9999 SCT027
FM271800 VRB05KT 9999 SCT025
RMK
T 29 29 26 25 Q 1013 1011 1011 1013
TAF3 VALID TL 271200

YMHB 26/09/2022 UTC

TAF YMHB 262317Z 2700/2800
VRB03KT 9999 -SHRA FEW015
BECMG 2700/2701 09007KT CAVOK
FM270900 03005KT CAVOK
FM271300 32007KT CAVOK
FM271900 17006KT 9999 -SHRA SCT010 BKN020
TEMPO 2719/2800 5000 SHRA BKN010
RMK
T 14 16 16 12 Q 1018 1016 1015 1017
TAF3

YPXM 26/09/2022 UTC

TAF YPXM 262323Z 2700/2800
13014KT 9999 BKN010
FM272000 13010KT 9999 BKN014
TEMPO 2700/2702 4000 SHRA BKN005
RMK
T 24 25 25 25 Q 1014 1014 1011 1010

New Zealand

The availability of aerodrome forecasts from overseas locations is dependent on the regular international exchange of data. Some locations may at times be absent. If this problem persists, please advise webav@bom.gov.au

 back to top

NZAA 26/09/2022 UTC

TAF NZAA 262301Z 2700/2806 07020G30KT 9999 -SHRA FEW025 SCT045
BECMG 2706/2708 08012KT

NZWN 26/09/2022 UTC

TAF NZWN 262301Z 2700/2806 35015KT CAVOK
FM270800 03005KT 9999 SCT040
TEMPO 2716/2718 7000 SHRA
BECMG 2721/2723 35015KT

NZCH 27/09/2022 UTC

TAF AMD NZCH 270030Z 2700/2806 07010KT CAVOK
BECMG 2708/2710 29005KT
PROB30 2714/2720 0400 FG
FM280000 07010KT 9999 BKN070

YLHI 26/09/2022 UTC

TAF YLHI 262317Z 2700/2800
28007KT 9999 SCT025
BECMG 2706/2708 36008KT 9999 SCT020
RMK
T 19 20 19 18 Q 1017 1015 1015 1016

YSNF 27/09/2022 UTC

TAF AMD YSNF 270037Z 2700/2800
04006KT 1500 SHRA SCT005 BKN010
FM270100 05010KT 9999 -SHRA SCT008 BKN010
FM270900 06014KT 9999 -SHRA SCT003 BKN005
INTER 2701/2712 4000 SHRA BKN005
TEMPO 2712/2800 3000 SHRA BKN002
RMK
T 19 20 19 18 Q 1018 1017 1017 1018

Indonesia, Malaysia, Myanmar, Singapore, Thailand, Vietnam

The availability of aerodrome forecasts from overseas locations is dependent on the regular international exchange of data. Some locations may at times be absent. If this problem persists, please advise webav@bom.gov.au

 back to top

WADA

TAF not available.

WAAA 26/09/2022 UTC

TAF WAAA 262300Z 2700/2806 13005KT 9999 SCT018
BECMG 2701/2702 27010KT
TEMPO 2707/2709 5000 RA FEW017CB
BECMG 2710/2712 13005KT

WIII 26/09/2022 UTC

TAF WIII 262300Z 2700/2806 36010KT 9000 SCT020
BECMG 2714/2716 17003KT 5000 HZ

WIHH 26/09/2022 UTC

TAF WIHH 262300Z 2700/2800 12006KT 6000 FEW020
TEMPO 2709/2712 04010KT 4000 -RA SCT018
BECMG 2714/2716 VRB03KT 5000 HZ SCT020

WIMM 26/09/2022 UTC

TAF WIMM 262300Z 2700/2800 05010KT 9999 NSW SCT018
BECMG 2710/2712 VRB03KT 5000 HZ
TEMPO 2712/2714 VRB15KT 3000 TSRA FEW017CB BKN018

WIPP 26/09/2022 UTC

TAF WIPP 262300Z 2700/2724 15007KT 9999 SCT010
TEMPO 2721/2724 5000 HZ

WIKD

TAF not available.

WARR 26/09/2022 UTC

TAF WARR 262300Z 2700/2800 27005KT 7000 FEW020
BECMG 2701/2703 08012KT 9999 NSW
BECMG 2716/2718 25005KT 5000 HZ

WADD 26/09/2022 UTC

TAF WADD 262300Z 2700/2800 17010KT 9999 SCT017

WRRA

TAF not available.

WALL 26/09/2022 UTC

TAF WALL 262300Z 2700/2806 25004KT 9999 SCT018 PROB30 TEMPO 2701/2704 8000 -RA FEW017CB
SCT018

WSSS 26/09/2022 UTC

TAF WSSS 262300Z 2700/2806 17008KT 9999 FEW015 BKN020

WSAP 26/09/2022 UTC

TAF WSAP 262300Z 2700/2806 17008KT 9999 FEW015 BKN020

WMKK 26/09/2022 UTC

TAF WMKK 262300Z 2700/2806 21006KT 9999 FEW018
PROB30 TEMPO 2713/2716 VRB02KT 5000 TSRA FEW008 FEW017CB

WMSA 26/09/2022 UTC

TAF WMSA 262300Z 2700/2800 22006KT 9999 FEW018

WMKP 26/09/2022 UTC

TAF WMKP 262300Z 2700/2800 00000KT 9000 FEW020
PROB30 TEMPO 2700/2704 6000 RA FEW017CB
BECMG 2704/2706 24008KT
TEMPO 2708/2712 5000 TSRA FEW017CB
BECMG 2712/2714 00000KT FEW025

WMKJ 26/09/2022 UTC

TAF WMKJ 262300Z 2700/2800 20006KT 9999 FEW018
PROB40 TEMPO 2703/2707 4000 TSRA FEW016CB SCT018

WMKD 26/09/2022 UTC

TAF WMKD 262300Z 2700/2724 VRB02KT 9999 FEW019

WMKB 26/09/2022 UTC

TAF WMKB 262300Z 2700/2724 08005KT 8000 FEW020
BECMG 2704/2706 30010KT 9999

VTBD 26/09/2022 UTC

TAF VTBD 262300Z 2700/2806 04003KT 9000 FEW015 BKN100 BECMG 2706/2708
26005KT TEMPO 2709/2714 VRB15KT 4000 TSRA FEW018CB SCT025 BKN080

VTBS 26/09/2022 UTC

TAF VTBS 262300Z 2700/2806 04003KT 9000 FEW015 BKN100 BECMG 2706/2708
26005KT TEMPO 2709/2714 VRB15KT 4000 TSRA FEW018CB SCT025 BKN080

VTBU 26/09/2022 UTC

TAF VTBU 262300Z 2700/2724 35003KT 9999 FEW020 BECMG 2706/2708
25007KT BECMG 2712/2714 35003KT

VTCC 26/09/2022 UTC

TAF VTCC 262300Z 2700/2806 36005KT 9999 SCT035 BECMG 2702/2704
18005KT TEMPO 2708/2712 -TSRA FEW025CB BKN030 BECMG 2710/2712
24005KT BECMG 2715/2717 34005KT BECMG 2801/2803 04005KT

VTSP 26/09/2022 UTC

TAF VTSP 262300Z 2700/2806 28010KT 9999 SCT020 TEMPO 2700/2706
28015G25KT 3000 TSRA FEW018CB SCT020 BKN100 TEMPO 2708/2714
28015G25KT 3000 TSRA FEW018CB SCT020 BKN100

VTSS 26/09/2022 UTC

TAF VTSS 262300Z 2700/2724 00000KT 9999 FEW020 BECMG 2702/2704
24008KT PROB40 TEMPO 2706/2712 24015G25KT 4000 TSRA FEW016CB
SCT018 BKN100 BECMG 2713/2715 00000KT

VVTS 26/09/2022 UTC

TAF VVTS 262300Z 2700/2806 30010KT 9999 SCT015 BKN050 TEMPO 2704/2709
5000 SHRA SCT013 FEW015CB BKN040 TEMPO 2709/2713 30015G28KT 1500
+TSRA SCT013 SCT015CB BKN040 BECMG 2715/2716 23012KT TEMPO
2800/2806 23015G30KT 5000 SHRA SCT013 FEW015CB BKN040

VDPP 26/09/2022 UTC

TAF VDPP 262300Z 2700/2718 21007KT 9999 SCT017 SCT040 TEMPO 2708/2712
5000 TSRA SCT015 FEW017CB BKN040

VVNB 26/09/2022 UTC

TAF VVNB 262300Z 2700/2724 32005KT 4000 BR SCT020 BECMG 2701/2702
6000 NSW

VYYY 26/09/2022 UTC

TAF VYYY 262300Z 2700/2724 23007KT BKN016 FEW020CB BKN100 TEMPO 0006
23005KT 5000 -RA TEMPO 0612 23008G18KT 4000 TSRA BKN013 FEW016CB
OVC090

South America

The availability of aerodrome forecasts from overseas locations is dependent on the regular international exchange of data. Some locations may at times be absent. If this problem persists, please advise webav@bom.gov.au

 back to top

SAEZ 26/09/2022 UTC

TAF SAEZ 262300Z 2700/2724 VRB03KT CAVOK TX27/2718Z TN09/2710Z PROB30
TEMPO 2707/2711 5000 BR BECMG 2713/2715 21010KT BECMG 2717/2719
FEW040

SAVC 26/09/2022 UTC

TAF SAVC 262300Z 2700/2724 25015KT CAVOK TX20/2719Z TN06/2710Z TEMPO 2721/2723 VRB05KT

SCIE 27/09/2022 UTC

TAF SCIE 262221Z 2700/2724 01010KT 9999 SCT015 BKN020 TX16/2718Z
TN09/2710Z BECMG 2700/2702 24004KT FEW035 BKN050 BECMG
2706/2708 CAVOK TEMPO 2707/2710 14006KT 4000 BR SCT004
BECMG 2716/2718 22012KT

SACO 26/09/2022 UTC

TAF SACO 262300Z 2700/2724 34010KT CAVOK TX20/2718Z TN08/2710Z
BECMG 2705/2707 9999 SCT030 BKN050
BECMG 2709/2711 VRB03KT 7000 -RA BKN015 OVC040
TEMPO 2712/2720 4000 TSRA BKN015 FEW040CB OVC040
BECMG 2718/2720 18010KT
BECMG 2722/2724 9999 NSW BKN040

SCIP 27/09/2022 UTC

TAF SCIP 262155Z 2700/2800 35013KT 9999 SCT030
TX22/2620Z TN16/2710Z

SAZM 26/09/2022 UTC

TAF SAZM 262300Z 2700/2724 VRB05KT 8000 -RA SCT025 BKN060
TX15/2717Z TN09/2709Z
BECMG 2702/2704 32005KT 7000 NSW BKN020
TEMPO 2704/2711 0500 FG BKN010
BECMG 2712/2714 20015KT 9999 SCT020

SAME 26/09/2022 UTC

TAF SAME 262300Z 2700/2724 05005KT CAVOK TX21/2720Z TN09/2710Z
BECMG 2701/2703 20005KT 9999 FEW040 SCT100 PROB30
TEMPO 2705/2709 18010KT 6000 TSRA SCT030 FEW040CB
BECMG 2719/2721 05005KT 9999 BKN030 BKN100

SUMU 26/09/2022 UTC

TAF SUMU 262330Z 2700/2724 30005KT 9999 SCT010 TX21/2718Z
TN11/2710Z TEMPO 2700/2711 3000 BR BKN010 TEMPO 2703/2710
0800 FG BKN005 BECMG 2714/2716 19015KT

SAZN 27/09/2022 UTC

TAF SAZN 262300Z 2700/2724 25010G20KT CAVOK TX21/2718Z TN04/2710Z
BECMG 2703/2705 27005KT
BECMG 2712/2714 VRB03KT

SCTE 26/09/2022 UTC

TAF COR SCTE 262215Z 2700/2724 24007KT 9999 FEW030
TN04/2709Z TX12/2719Z
BECMG 2703/2705 18006KT
TEMPO 2708/2711 VRB03KT 2000 BR BKN010
BECMG 2715/2717 18016KT CAVOK

SCCI 26/09/2022 UTC

TAF SCCI 262219Z 2700/2800 28015KT 9999 SCT040
TN04/2710Z TX10/2718Z
BECMG 2704/2706 28025G35KT 8000 SCT020 BKN030
TEMPO 2706/2713 27035G45KT 6000 SHRA FEW015 BKN025
BECMG 2713/2715 9999 NSW
BECMG 2713/2715 28020G30KT
TEMPO 2722/2800 28030G40KT

SAWG 26/09/2022 UTC

TAF SAWG 262300Z 2700/2724 25020G40KT 9999 VCDZ SCT035 BKN060
TX14/2718Z TN05/2710Z
BECMG 2702/2704 27030G55KT
BECMG 2715/2717 27030G48KT 9999 NSW SCT030

SAAR 26/09/2022 UTC

TAF SAAR 262300Z 2700/2724 VRB03KT CAVOK TX27/2718Z TN12/2709Z
BECMG 2712/2714 09010KT

SAZS 26/09/2022 UTC

TAF SAZS 262300Z 2700/2724 30015KT 9999 SCT040 TX15/2718Z
TNM01/2710Z
BECMG 2704/2706 VRB03KT 9999 SCT030
BECMG 2712/2714 14005KT CAVOK

SCEL 27/09/2022 UTC

TAF SCEL 262220Z 2700/2724 16004KT CAVOK TX21/2719Z TN06/2710Z TEMPO
2700/2706 FEW160 BKN200 BECMG 2706/2708 VRB02KT 7000 BECMG
2714/2716 20010KT CAVOK BECMG 2718/2720 FEW170 BKN200

SAWH 26/09/2022 UTC

TAF SAWH 262300Z 2700/2724 23025G40KT 9999 SCT020 BKN045
TX10/2719Z
TN00/2710Z
BECMG 2707/2709 35010KT 5000 RABR BKN020 OVC045
BECMG 2713/2715 27010KT 9999 -RA BKN030 OVC060

Guam, Japan, Korea

The availability of aerodrome forecasts from overseas locations is dependent on the regular international exchange of data. Some locations may at times be absent. If this problem persists, please advise webav@bom.gov.au

 back to top

PGUA 26/09/2022 UTC

TAF AMD PGUA 261801Z 2618/2724 VRB06KT 9999 SCT016 QNH2978INS
BECMG 2707/2708 04009KT 9999 VCSH SCT016 SCT120 QNH2977INS
TEMPO 2710/2718 05012KT 6000 -SHRA VCTS BKN016CB TX31/2702Z
TN24/2717Z

PGUM 26/09/2022 UTC

TAF PGUM 262327Z 2700/2806 01007KT P6SM VCSH FEW015 SCT030

PGSN 27/09/2022 UTC

TAF PGSN 270058Z 2701/2724 02007KT P6SM VCSH FEW015 SCT030
TEMPO 2702/2704 VRB05G20KT 4SM SHRA BKN020

PTRO 27/09/2022 UTC

TAF AMD PTRO 270129Z 2701/2724 27007KT P6SM VCSH SCT015 BKN110
TEMPO 2702/2705 VRB05G20KT 3SM SHRA BKN015

RJOO

26/09/2022 UTC

TAF RJOO 262307Z 2700/2806 36006KT 9999 FEW020 BKN040 TEMPO
2704/2710 3000 SHRA BR

RJOB 26/09/2022 UTC

TAF RJOB 262306Z 2700/2806 06005KT 7000 -SHRA FEW005 SCT008 BKN020
TEMPO 2700/2706 3000 TSRA BR BCFG FEW000 SCT003 BKN005
FEW020CB TEMPO 2706/2709 3000 SHRA BR BCFG FEW000 SCT003
BKN005

RJGG 26/09/2022 UTC

TAF RJGG 262307Z 2700/2806 30004KT 9999 FEW020 BKN050 BECMG
2702/2704 16010KT BECMG 2803/2806 29006KT

RJCC 26/09/2022 UTC

TAF RJCC 262305Z 2700/2806 35010KT 9999 FEW040 BECMG 2721/2800
18010KT

RJSS 26/09/2022 UTC

TAF RJSS 262308Z 2700/2806 34004KT 9999 FEW020 BECMG 2701/2703
10008KT BECMG 2709/2711 34008KT

RJFK 26/09/2022 UTC

TAF RJFK 262313Z 2700/2806 14004KT 7000 -SHRA FEW005 SCT010 BKN015
BECMG 2700/2702 32007KT TEMPO 2700/2703 3000 TSRA BR FEW003
BKN005 BKN010 FEW020CB TEMPO 2703/2705 4000 -SHRA BR FEW005
BKN008 BKN015

RJAA 26/09/2022 UTC

TAF RJAA 262313Z 2700/2806 04012KT 9999 FEW020 BKN030

RJBB 27/09/2022 UTC

TAF AMD RJBB 270143Z 2701/2806 03008KT 9999 FEW020 BKN040 TEMPO
2704/2708 2000 TSRA BR FEW003 SCT010 BKN020 FEW020CB TEMPO
2708/2710 3000 SHRA BR

RJTT 26/09/2022 UTC

TAF RJTT 262305Z 2700/2806 05008KT 9999 FEW030 BECMG 2702/2704
08016KT BECMG 2709/2711 03014KT

RJFF 26/09/2022 UTC

TAF RJFF 262306Z 2700/2806 34011KT 9999 FEW020 BKN040 TEMPO
2700/2702 4000 SHRA BR FEW005 BKN008 BKN015 BECMG 2712/2715
14004KT BECMG 2721/2800 35011KT

RJFT 26/09/2022 UTC

TAF RJFT 262315Z 2700/2806 32007KT 6000 -SHRA FEW005 SCT008 BKN015
TEMPO 2700/2702 1500 TSRA BR FEW001 BKN003 BKN005 FEW025CB
TEMPO 2702/2706 4000 -SHRA BR BECMG 2715/2718 06003KT BECMG
2803/2806 27005KT

RJFU 26/09/2022 UTC

TAF RJFU 262317Z 2700/2806 33011KT 9999 FEW015 SCT040 TEMPO
2700/2703 4000 -SHRA BR

ROAH 26/09/2022 UTC

TAF ROAH 262305Z 2700/2806 10005KT 9999 FEW015 SCT025 BECMG
2700/2702 07010KT BECMG 2712/2715 11003KT BECMG 2721/2800
03006KT

RKSS 26/09/2022 UTC

TAF RKSS 262300Z 2700/2806 33006KT CAVOK
TX27/2705Z TN13/2721Z TX26/2805Z
BECMG 2714/2716 06005KT 6000 NSC
BECMG 2801/2803 32006KT CAVOK

RKSI 26/09/2022 UTC

TAF RKSI 262300Z 2700/2806 07005KT CAVOK
TX24/2705Z TN18/2720Z TX24/2805Z
BECMG 2701/2703 30007KT
BECMG 2713/2715 01010KT
BECMG 2716/2717 12006KT
BECMG 2804/2806 27006KT

RKSM 26/09/2022 UTC

TAF RKSM 262300Z 2700/2806 06006KT 9999 SCT030 SCT200 TX28/2706Z
TN12/2721Z

RKPK 26/09/2022 UTC

TAF RKPK 262300Z 2700/2806 33006KT CAVOK
TX26/2706Z TN17/2721Z
BECMG 2701/2702 33008KT 9999 SCT030

RKPC 26/09/2022 UTC

TAF RKPC 262300Z 2700/2806 05008KT CAVOK
TX24/2704Z TN21/2719Z TX24/2804Z
BECMG 2711/2712 17005KT 9999 SCT030 BKN150
BECMG 2800/2801 07010KT

Indonesia, Pakistan, Singapore, India, Sri Lanka, United Arab Emirates

The availability of aerodrome forecasts from overseas locations is dependent on the regular international exchange of data. Some locations may at times be absent. If this problem persists, please advise webav@bom.gov.au

 back to top

WIII 26/09/2022 UTC

TAF WIII 262300Z 2700/2806 36010KT 9000 SCT020
BECMG 2714/2716 17003KT 5000 HZ

WSSS 26/09/2022 UTC

TAF WSSS 262300Z 2700/2806 17008KT 9999 FEW015 BKN020

VCBI 26/09/2022 UTC

TAF VCBI 262300Z 2700/2806 24010KT 9999 SCT017 TX31/2707Z
TN26/2800Z PROB30
TEMPO 2700/2703 8000 -SHRA FEW014 SCT016

VECC 26/09/2022 UTC

TAF VECC 262300Z 2700/2806 21005KT 2400 BR SCT018 BKN100
BECMG 2703/2705 4000 -RA HZ
TEMPO 2705/2709 1500 TSRA SCT015 FEW025CB OVC090
BECMG 2800/2802 2000 -RA BR
BECMG 2803/2805 3500 -RA HZ

VOMM 26/09/2022 UTC

TAF VOMM 262300Z 2700/2806 27005KT 4000 -DZ/BR SCT020 BKN100
BECMG 2705/2706 09010KT 6000
TEMPO 2709/2715 4000 -TSRA/RA SCT018 FEW025TCU/CB BKN080
BECMG 2718/2719 27005KT 4000 -RA/BR
BECMG 2805/2806 09010KT 6000

VOTV 27/09/2022 UTC

TAF VOTV 262300Z 2700/2806 34010KT 3000 FEW015 SCT080 BECMG
2702/2704 33010G25KT 6000 FEW015 FEW025TCU SCT080 TEMPO 2709/2714
4000 -TSRA RA SCT012 FEW025CB BKN080 BECMG 2715/2716 33010KT 3000
BR SCT015 SCT080 BECMG 2802/2804 33010G25KT 6000 FEW015
FEW025TCU

VABB 26/09/2022 UTC

TAF VABB 262300Z 2700/2806 14003KT 3000 -DZ HZ FEW020 SCT025
TEMPO 2700/2703 1500 DZ HZ SCT020 SCT025
BECMG 2703/2705 25010KT 4000 HZ SCT018 SCT025 BKN090
BECMG 2709/2711 5000 HZ
BECMG 2715/2717 02003KT 3500 HZ
BECMG 2722/2724 06003KT 3000 HZ
BECMG 2701/2703 2000 -DZ HZ

VAAH 26/09/2022 UTC

TAF VAAH 262300Z 2700/2806 32005KT 4000 BR HZ SCT020 SCT080
BECMG 2701/2703 34005KT 3000 BR HZ
BECMG 2704/2706 32005KT 4000 HZ FU
BECMG 2707/2709 6000 FEW020 SCT025 BKN080
TEMPO 2708/2712 30010KT 3000 –RA BR FEW012 SCT018 BKN080
BECMG 2712/2714 23006KT 4000 –RA HZ FEW015 SCT020 BKN080
BECMG 2720/2722 28006KT 3000 –RA BR
BECMG 2801/2803 30005KT 2000 –DZ BR
BECMG 2804/2806 32005KT 5000 –DZ HZ SCT020 SCT025 BKN080

VILK 26/09/2022 UTC

TAF VILK 262300Z 2700/2709 00000KT 2000 HZ BR SCT020 BKN100
BECMG 2703/2705 3000 HZ BR
BECMG 2705/2707 4000 HZ
BECMG 2707/2709 5000 HZ
BECMG 2715/2717 3000 HZ BR
BECMG 2800/2802 2000 HZ BR
BECMG 2804/2806 4000 HZ

VANP 26/09/2022 UTC

TAF VANP 262300Z 2700/2806 32004KT 2500 BR/HZ SCT018 BKN090
BECMG 2702/2704 32004KT 4000 BR/HZ SCT018 BKN090
BECMG 2712/2714 29005KT 4000 HZ SCT020 SCT025
BECMG 2718/2720 03005KT 3000 -RA/BR SCT015 BKN080
BECMG 2802/2804 29005KT 4000 HZ SCT020 BKN090

VRMM 26/09/2022 UTC

TAF VRMM 262300Z 2700/2806 30014KT 9999 FEW018TCU TEMPO
2700/2706 5000 SHRA FEW018CB

VOHS 26/09/2022 UTC

TAF VOHS 262300Z 2700/2806 21006KT 5000 HZ BR SCT015 FEW030CB BKN100
TEMPO
2700/2703 26008KT 3000 RA BR SCT010 SCT015 BKN080 BECMG 2704/2706
28010KT
6000 SCT015 SCT025 TEMPO 2710/2716 3000 RA SCT010 FEW030CB BKN080
BECMG
2716/2718 35006KT 5000 BR SCT015 SCT100 TEMPO 2723/2803 28008KT
3000
BR SCT010 SCT015 BECMG 2804/2806 32010KT 6000 SCT015 SCT025

OPKC 26/09/2022 UTC

TAF OPKC 262130Z 2700/2806 26010KT 6000 NSC TEMPO 2700/2704 26006KT
4000 HZ SCT030 TEMPO 2723/2803 26008KT 4000 HZ NSC

OBBI 26/09/2022 UTC

TAF OBBI 262300Z 2700/2806 33012KT CAVOK

OMAA 26/09/2022 UTC

TAF OMAA 262300Z 2700/2806 VRB02KT 6000 NSC
PROB30 2700/2705 0200 FG VV///
BECMG 2708/2710 32011KT
BECMG 2717/2719 VRB02KT
PROB30 2723/2805 1500 BR BKN005

OMDB 26/09/2022 UTC

TAF OMDB 262300Z 2700/2806 09007KT 7000 NSC
PROB30 2700/2705 4000 HZ BKN008
PROB30 2703/2707 16010KT
BECMG 2708/2710 33012KT
BECMG 2715/2717 08005KT
PROB30 2800/2805 4000 HZ BKN008

OOMS 26/09/2022 UTC

TAF OOMS 261700Z 2618/2724 VRB02KT 8000 NSC PROB30 TEMPO 2622/2703
4500 BR SCT010 BECMG 2706/2708 03012KT BECMG 2715/2717
VRB02KT

OMSJ 26/09/2022 UTC

TAF OMSJ 262300Z 2700/2806 09007KT 7000 NSC
PROB30 2700/2705 4000 HZ BKN008
PROB30 2703/2707 16010KT
BECMG 2709/2711 34014KT
BECMG 2714/2716 08005KT
PROB30 2800/2805 4000 HZ BKN008

Malawi, Mauritius, South Africa, Zambia, Zimbabwe

The availability of aerodrome forecasts from overseas locations is dependent on the regular international exchange of data. Some locations may at times be absent. If this problem persists, please advise webav@bom.gov.au

 back to top

FIMP 26/09/2022 UTC

TAF COR FIMP 262305Z 2700/2806 11015G25KT 9999 SCT017
TEMPO 2701/2704 7000 -SHRA BKN015

FMEE 26/09/2022 UTC

TAF FMEE 262300Z 2700/2806 13012G24KT 9999 FEW025

FLKK

TAF not available.

FWKI 26/09/2022 UTC

TAF FWKI 261500Z 2618/2724 08008KT 9999 FEW040 FM261800 06006KT CAVOK
BECMG 2707/2709 08012KT 9999 FEW035 BECMG 2711/2714 08008KT 9999
SCT038 SCT070 FM271600 08004KT CAVOK

FAOR 26/09/2022 UTC

TAF FAOR 262200Z 2700/2806 01009KT CAVOK
TX31/2713Z TN14/2803Z
BECMG 2704/2706 VRB03KT
BECMG 2715/2717 02011KT
PROB30 TEMPO 2719/2723 02015G25KT
PROB30 TEMPO 2801/2806 4500 BR NSC

FVHA

TAF not available.

FAWK 27/09/2022 UTC

TAF FAWK 270000Z 2701/2712 NIL

FABL 26/09/2022 UTC

TAF FABL 262200Z 2700/2724 VRB03KT 9999 SCT030 BKN080
TX30/2712Z TN14/2704Z
BECMG 2709/2711 35012KT
PROB30 TEMPO 2715/2722 -SHRA FEW045TCU
BECMG 2715/2717 20010KT

FALE 26/09/2022 UTC

TAF FALE 262200Z 2700/2806 20015KT 9999 BKN012
TX26/2712Z TN20/2704Z BECMG 2702/2704 20015KT
BKN020 BECMG 2712/2714 14010KT SCT025
FM272000 05008KT CAVOK

YPCC 26/09/2022 UTC

TAF YPCC 262322Z 2700/2800
12014KT 9999 BKN018
INTER 2700/2703 11015G25KT 4000 SHRA BKN015
RMK
T 25 27 27 27 Q 1013 1013 1012 1010

United States (includes Hawaii) and Mexican emergency/alternates

The availability of aerodrome forecasts from overseas locations is dependent on the regular international exchange of data. Some locations may at times be absent. If this problem persists, please advise webav@bom.gov.au

 back to top

PHNL 27/09/2022 UTC

TAF PHNL 270103Z 2701/2806 06012G18KT P6SM FEW025 SCT050 BKN070
FM270600 06008KT P6SM SCT025 BKN070
FM271400 VRB04KT P6SM SCT025
FM272200 09012KT P6SM FEW025 SCT050 BKN070

PHLI 26/09/2022 UTC

TAF PHLI 262329Z 2700/2724 07012KT P6SM FEW020 SCT035
FM271200 04009KT P6SM FEW020
FM272100 07012KT P6SM FEW020 SCT035

PHOG 26/09/2022 UTC

TAF PHOG 262329Z 2700/2724 04020G26KT P6SM FEW035 SCT060
FM270600 06014KT P6SM FEW035 SCT060
FM271200 06008KT P6SM FEW035
FM272000 06016KT P6SM FEW035 SCT060

PHTO 26/09/2022 UTC

TAF PHTO 262329Z 2700/2724 09010KT P6SM SCT045 SCT070
FM270600 25004KT P6SM VCSH SCT030 BKN045
FM271200 25007KT P6SM VCSH SCT045 BKN070
FM272000 06010KT P6SM -SHRA SCT030 OVC045

PKMJ 26/09/2022 UTC

TAF PKMJ 262327Z 2700/2724 12008KT P6SM VCSH SCT015 SCT050

KLAX 26/09/2022 UTC

TAF KLAX 262333Z 2700/2806 26013KT P6SM FEW100
FM270400 26006KT P6SM SKC
FM270900 VRB03KT P6SM SKC
FM271700 24006KT P6SM SKC
FM272000 26013KT P6SM SKC

KONT 26/09/2022 UTC

TAF KONT 262338Z 2700/2806 25011G18KT P6SM FEW150
FM270400 VRB04KT P6SM SKC
FM272000 26012G18KT P6SM SCT100
FM280400 VRB04KT P6SM FEW250

KPMD 26/09/2022 UTC

TAF KPMD 262333Z 2700/2724 27009KT P6SM SKC
FM270400 VRB03KT P6SM SKC
FM271800 05006KT P6SM SKC

KSAN 26/09/2022 UTC

TAF KSAN 262338Z 2700/2806 30010KT P6SM FEW007 FEW035
FM270300 30005KT P6SM SCT007
FM271000 VRB04KT 5SM BR BKN007
FM271700 28005KT P6SM FEW010
FM271900 31009KT P6SM FEW250
FM280300 VRB04KT P6SM FEW250

KLAS 26/09/2022 UTC

TAF KLAS 262320Z 2700/2806 VRB06KT P6SM FEW250
FM270400 27007KT P6SM FEW250
FM271700 07007KT P6SM FEW120 SCT200
FM272300 12009KT P6SM VCSH FEW120 SCT200
FM280400 VRB06KT P6SM FEW120 SCT200

KOAK 26/09/2022 UTC

TAF KOAK 262321Z 2700/2806 30014KT P6SM SKC
FM270400 29007KT P6SM BKN010
FM271730 29005KT P6SM FEW006 SCT012
FM272100 30013KT P6SM SKC
FM280500 30008KT P6SM BKN009

KSFO 26/09/2022 UTC

TAF KSFO 262321Z 2700/2806 31016G27KT P6SM FEW006
FM270300 30012KT P6SM FEW007
FM270800 28008KT P6SM BKN011
FM271700 28006KT P6SM FEW006 SCT012
FM272200 31017G23KT P6SM FEW008
FM280500 30010G20KT P6SM SCT008

KSMF 26/09/2022 UTC

TAF KSMF 262325Z 2700/2724 17008KT P6SM SKC

KSCK 26/09/2022 UTC

TAF KSCK 262325Z 2700/2724 29008KT P6SM SKC
FM270900 35005KT P6SM SKC
FM271900 30008KT P6SM SKC

KFAT 26/09/2022 UTC

TAF KFAT 262320Z 2700/2724 30005KT P6SM SCT200

KJFK 26/09/2022 UTC

TAF KJFK 262333Z 2700/2806 18014G22KT P6SM SCT060 SCT100
FM270200 24008KT P6SM BKN080
FM271500 23015G25KT P6SM SCT060
FM280000 28014G24KT P6SM SCT050

KPHL 26/09/2022 UTC

TAF KPHL 262320Z 2700/2806 25006KT P6SM SCT100
FM271500 26010G18KT P6SM FEW070
FM272300 27006KT P6SM FEW050

KPIT 26/09/2022 UTC

TAF KPIT 262320Z 2700/2806 25008G16KT P6SM SCT050
TEMPO 2700/2701 -SHRA BKN040
FM270200 26008KT P6SM SCT040
FM270900 27007KT P6SM SCT025
FM271400 27011G22KT P6SM BKN040 PROB30 2717/2723 4SM -SHRA
BKN030

KDEN 26/09/2022 UTC

TAF KDEN 262331Z 2700/2806 08009KT P6SM FEW140
FM270200 13007KT P6SM FEW150
FM270600 20008KT P6SM SKC
FM271400 VRB06KT P6SM SCT220
FM271800 09007KT P6SM FEW100 SCT150 BKN220
FM272300 20011KT P6SM SCT100 BKN150

KMCI 26/09/2022 UTC

TAF KMCI 262323Z 2700/2724 29004KT P6SM FEW150

KDFW 26/09/2022 UTC

TAF KDFW 262320Z 2700/2806 01010KT P6SM SKC
FM270200 VRB03KT P6SM SKC
FM271500 15008KT P6SM SKC

KAUS 26/09/2022 UTC

TAF KAUS 262320Z 2700/2806 02009KT P6SM FEW250
FM270200 01003KT P6SM SKC
FM271500 05009KT P6SM SKC

KELP 26/09/2022 UTC

TAF KELP 262339Z 2700/2724 10013G20KT P6SM FEW070 SCT150 SCT250
FM270600 06005KT P6SM FEW070 BKN150
FM271800 13010KT P6SM SKC

KIAH 26/09/2022 UTC

TAF KIAH 262325Z 2700/2806 03010KT P6SM FEW070 FEW250
FM270500 VRB05KT P6SM SKC
FM271700 05010G15KT P6SM SKC
FM280300 04005KT P6SM SKC

KSAT 26/09/2022 UTC

TAF KSAT 262320Z 2700/2806 03008KT P6SM FEW250
FM270600 01005KT P6SM SKC
FM271500 07009KT P6SM SKC

KTUS 27/09/2022 UTC

TAF AMD KTUS 270145Z 2702/2724 15012G22KT P6SM BKN100 BKN140
FM270400 14010KT P6SM SCT100 BKN200
FM271600 13013G22KT P6SM SCT100 BKN200
FM272000 12012G20KT P6SM VCSH BKN100 BKN150

MMCU 26/09/2022 UTC

TAF MMCU 261719Z 2618/2718 16005KT P6SM BKN020
BECMG 2620/2621 SCT020CB
TEMPO 2623/2703 4SM TSRA BKN020CB
FM270300 13005KT 5SM HZ SCT020 BKN100
TEMPO 2713/2717 4SM -RA BKN020
FM271700 13010KT P6SM SCT020 BKN250

MMHO 27/09/2022 UTC

TAF COR MMHO 270040Z 2618/2718 13010KT P6SM SCT200
TEMPO 2700/2704 6SM -RA BKN030CB
FM270400 05015KT P6SM SKC
BECMG 2706/2708 03005KT
FM271700 14010KT P6SM SKC

MMLT 26/09/2022 UTC

TAF MMLT 261755Z 2618/2718 07005KT P6SM SKC
BECMG 2703/2704 23005KT
FM271700 07005KT P6SM SKC

MMSD 26/09/2022 UTC

TAF MMSD 261755Z 2618/2718 13005KT P6SM SKC
BECMG 2621/2622 17013KT P6SM SCT030
FM270300 25005KT P6SM SKC
BECMG 2713/2714 32005KT

Papua New Guinea, Southwest Pacific

The availability of aerodrome forecasts from overseas locations is dependent on the regular international exchange of data. Some locations may at times be absent. If this problem persists, please advise webav@bom.gov.au

 back to top

NWWW 26/09/2022 UTC

TAF NWWW 262300Z 2700/2724 16012KT 9999 SCT030 BECMG 2706/2708
VRB02KT

NFFN 26/09/2022 UTC

TAF NFFN 262310Z 2700/2724
30010KT 9999 SCT028
PROB40 TEMPO 2702/2706 5000 TSRA BKN015 FEW018CB
BECMG 2704/2706 11006KT
BECMG 2722/2724 30010KT

NFNA 26/09/2022 UTC

TAF NFNA 262311Z 2700/2724
03010KT 9999 SCT020
PROB30 TEMPO 2703/2706 5000 TSRA BKN015 FEW016CB
BECMG 2705/2707 VRB03KT
PROB40 2716/2719 0500 FG NSC
BECMG 2721/2723 16010KT

NFTF 26/09/2022 UTC

TAF NFTF 262304Z 2700/2724
08008KT 9999 SCT016 BKN100
PROB40 TEMPO 2700/2709 5000 SHRA BKN015
PROB30 TEMPO 2716/2719 5000 SHRA BKN015

NSTU 27/09/2022 UTC

TAF AMD NSTU 270122Z 2701/2724 08010G16KT P6SM SCT020
FM270600 08006KT P6SM SCT020 SCT100

NVVV 26/09/2022 UTC

TAF NVVV 262300Z 2700/2724 VRB04KT 9999 SCT020

NCRG 26/09/2022 UTC

TAF NCRG 262302Z 2700/2724
05009KT 9999 -RA BKN018 BKN045
PROB40 TEMPO 2700/2710 5000 RA BKN015
TEMPO 2710/2724 3000 +RA BKN010 FEW016CB

NTAA 26/09/2022 UTC

TAF NTAA 262300Z 2700/2806 06015KT 9999 FEW025 BECMG 2702/2704
VRB05KT BECMG 2718/2720 05015KT

NTTG

TAF not available.

NTTO

TAF not available.

NSFA 26/09/2022 UTC

TAF NSFA 262312Z 2700/2724
06008KT 9999 SCT024
PROB30 TEMPO 2702/2705 5000 TSRA FEW018CB

ANYN

TAF not available.

AGGH 26/09/2022 UTC

TAF AGGH 262310Z 2700/2724 36010KT 9999 -SHRA SCT016 SCT026 BKN100

T 25 28 30 27 Q 1010 1008 1007 1009

AGGM 26/09/2022 UTC

TAF AGGM 262310Z 2700/2724 VRB03KT 9999 SCT018

PROB40 INTER 2704/2706 5000 TSSH SCT015 FEW016CB BKN025

AGGN 26/09/2022 UTC

TAF AGGN 262310Z 2700/2724 VRB03KT 9999 SCT018

PROB40 INTER 2704/2706 5000 TSSH SCT015 FEW016CB BKN025

AYPY 27/09/2022 UTC

TAF AYPY 262230Z 2700/2724 20005KT 9999 SCT020
FM270400 17015KT 9999 -SHRA SCT018 SCT030 BKN130 PROB30
INTER 2705/2709 5000 TSRA BKN010 FEW018CB

AYNZ

TAF not available.

AYMD

TAF not available.

AYMH

TAF not available.

AYTA

TAF not available.

PKMJ 26/09/2022 UTC

TAF PKMJ 262327Z 2700/2724 12008KT P6SM VCSH SCT015 SCT050

NGTA 26/09/2022 UTC

TAF NGTA 262312Z 2700/2724
09010KT 9999 FEW020

PTRO 27/09/2022 UTC

TAF AMD PTRO 270129Z 2701/2724 27007KT P6SM VCSH SCT015 BKN110
TEMPO 2702/2705 VRB05G20KT 3SM SHRA BKN015

YLHI 26/09/2022 UTC

TAF YLHI 262317Z 2700/2800
28007KT 9999 SCT025
BECMG 2706/2708 36008KT 9999 SCT020
RMK
T 19 20 19 18 Q 1017 1015 1015 1016

YSNF 27/09/2022 UTC

TAF AMD YSNF 270037Z 2700/2800
04006KT 1500 SHRA SCT005 BKN010
FM270100 05010KT 9999 -SHRA SCT008 BKN010
FM270900 06014KT 9999 -SHRA SCT003 BKN005
INTER 2701/2712 4000 SHRA BKN005
TEMPO 2712/2800 3000 SHRA BKN002
RMK
T 19 20 19 18 Q 1018 1017 1017 1018

Indonesia, Timor Leste, Papua New Guinea

The availability of aerodrome forecasts from overseas locations is dependent on the regular international exchange of data. Some locations may at times be absent. If this problem persists, please advise webav@bom.gov.au

 back to top

WAAA 26/09/2022 UTC

TAF WAAA 262300Z 2700/2806 13005KT 9999 SCT018
BECMG 2701/2702 27010KT
TEMPO 2707/2709 5000 RA FEW017CB
BECMG 2710/2712 13005KT

WAMM 26/09/2022 UTC

TAF WAMM 262300Z 2700/2806 16009KT 9999 SCT021
BECMG 2711/2712 VRB03KT

WAMP

TAF not available.

WAJJ 26/09/2022 UTC

TAF WAJJ 262300Z 2700/2724 12006KT 9999 FEW015
TEMPO 2705/2708 VCSH FEW012CB

WAPP 26/09/2022 UTC

TAF WAPP 262300Z 2700/2724 17006KT 9999 SCT017

WABB 26/09/2022 UTC

TAF WABB 262300Z 2700/2806 02005KT 9999 SCT018
TEMPO 2702/2704 5000 RA BKN018

WPDL 26/09/2022 UTC

TAF WPDL 262230Z 2700/2712
33010KT 9999 SCT030
RMK
T 27 29 29 26 Q 1010 1008 1006 1008

WATT 26/09/2022 UTC

TAF WATT 262300Z 2700/2724 14006KT 9999 SCT018
BECMG 2701/2703 27014KT
BECMG 2710/2712 10007KT

WIII 26/09/2022 UTC

TAF WIII 262300Z 2700/2806 36010KT 9000 SCT020
BECMG 2714/2716 17003KT 5000 HZ

WIHH 26/09/2022 UTC

TAF WIHH 262300Z 2700/2800 12006KT 6000 FEW020
TEMPO 2709/2712 04010KT 4000 -RA SCT018
BECMG 2714/2716 VRB03KT 5000 HZ SCT020

WIMM 26/09/2022 UTC

TAF WIMM 262300Z 2700/2800 05010KT 9999 NSW SCT018
BECMG 2710/2712 VRB03KT 5000 HZ
TEMPO 2712/2714 VRB15KT 3000 TSRA FEW017CB BKN018

WARR 26/09/2022 UTC

TAF WARR 262300Z 2700/2800 27005KT 7000 FEW020
BECMG 2701/2703 08012KT 9999 NSW
BECMG 2716/2718 25005KT 5000 HZ

WADD 26/09/2022 UTC

TAF WADD 262300Z 2700/2800 17010KT 9999 SCT017

AYPY 27/09/2022 UTC

TAF AYPY 262230Z 2700/2724 20005KT 9999 SCT020
FM270400 17015KT 9999 -SHRA SCT018 SCT030 BKN130 PROB30
INTER 2705/2709 5000 TSRA BKN010 FEW018CB

AYNZ

TAF not available.

AYMH

TAF not available.

AYMD

TAF not available.

AYHK

TAF not available.

AYTK

TAF not available.

AYVN

TAF not available.

AYWK

TAF not available.

AYGA

TAF not available.

AYDU

TAF not available.

AYMS

TAF not available.

AYRB

TAF not available.

AYTB

TAF not available.

AYKI

TAF not available.

AYKT

TAF not available.

AYBK

TAF not available.

AYKM

TAF not available.

AYKY

TAF not available.

AYMO

TAF not available.

AYKV

TAF not available.

Accessing this Service

By entering this site, you acknowledge that this information is produced solely for use by the aviation industry, and you are aware that any information for the purposes of flight planning should be obtained from Airservices Australia.